createdAt,value
2022-10-13T00:00:57.222Z,6.09
2022-10-13T00:03:31.731Z,6.06
2022-10-13T00:05:59.193Z,6.04
2022-10-13T00:08:26.689Z,6.02
2022-10-13T00:10:54.210Z,6.00
2022-10-13T00:13:21.689Z,5.98
2022-10-13T00:15:49.365Z,5.99
2022-10-13T00:18:16.990Z,6.00
2022-10-13T00:20:47.494Z,5.98
2022-10-13T00:23:16.387Z,5.96
2022-10-13T00:25:46.859Z,5.96
2022-10-13T00:28:16.468Z,5.96
2022-10-13T00:30:44.565Z,5.95
2022-10-13T00:33:13.464Z,5.93
2022-10-13T00:35:44.316Z,5.91
2022-10-13T00:38:12.828Z,5.90
2022-10-13T00:40:47.868Z,5.91
2022-10-13T00:43:18.533Z,5.92
2022-10-13T00:45:50.069Z,5.96
2022-10-13T00:48:27.856Z,5.98
2022-10-13T00:50:56.606Z,6.01
2022-10-13T00:53:30.901Z,6.03
2022-10-13T00:55:59.009Z,6.03
2022-10-13T00:58:31.465Z,6.02
2022-10-13T01:00:59.583Z,6.00
2022-10-13T01:03:27.326Z,5.98
2022-10-13T01:05:59.354Z,5.96
2022-10-13T01:08:29.056Z,5.96
2022-10-13T01:11:16.757Z,5.97
2022-10-13T01:14:08.911Z,5.97
2022-10-13T01:16:59.206Z,5.97
2022-10-13T01:19:58.828Z,5.96
2022-10-13T01:22:47.983Z,5.94
2022-10-13T01:25:35.234Z,5.91
2022-10-13T01:28:18.466Z,5.88
2022-10-13T01:30:52.221Z,5.83
2022-10-13T01:33:22.832Z,5.81
2022-10-13T01:36:06.386Z,5.82
2022-10-13T01:39:13.245Z,5.85
2022-10-13T01:41:46.356Z,5.87
2022-10-13T01:44:32.509Z,5.88
2022-10-13T01:47:02.548Z,5.89
2022-10-13T01:49:34.782Z,5.90
2022-10-13T01:52:07.372Z,5.88
2022-10-13T01:54:35.164Z,5.87
2022-10-13T01:57:02.679Z,5.86
2022-10-13T01:59:36.023Z,5.85
2022-10-13T02:02:08.639Z,5.82
2022-10-13T02:04:56.584Z,5.82
2022-10-13T02:07:34.643Z,5.83
2022-10-13T02:10:22.690Z,5.87
2022-10-13T02:12:58.151Z,5.90
2022-10-13T02:15:34.993Z,5.91
2022-10-13T02:18:04.782Z,5.91
2022-10-13T02:20:32.734Z,5.91
2022-10-13T02:23:09.143Z,5.89
2022-10-13T02:25:36.850Z,5.88
2022-10-13T02:28:05.492Z,5.87
2022-10-13T02:30:33.883Z,5.89
2022-10-13T02:33:02.845Z,5.91
2022-10-13T02:35:31.045Z,5.96
2022-10-13T02:37:59.054Z,6.01
2022-10-13T02:40:27.830Z,6.05
2022-10-13T02:42:55.445Z,6.10
2022-10-13T02:45:23.495Z,6.13
2022-10-13T02:47:51.071Z,6.17
2022-10-13T02:50:18.815Z,6.18
2022-10-13T02:52:46.511Z,6.20
2022-10-13T02:55:14.109Z,6.21
2022-10-13T02:57:41.578Z,6.25
2022-10-13T03:00:09.702Z,6.31
2022-10-13T03:02:37.220Z,6.38
2022-10-13T03:05:05.166Z,6.45
2022-10-13T03:07:32.652Z,6.52
2022-10-13T03:10:00.141Z,6.59
2022-10-13T03:12:27.768Z,6.64
2022-10-13T03:14:55.227Z,6.67
2022-10-13T03:17:22.869Z,6.72
2022-10-13T03:19:50.371Z,6.79
2022-10-13T03:22:18.572Z,6.88
2022-10-13T03:24:46.329Z,6.97
2022-10-13T03:27:14.265Z,7.05
2022-10-13T03:29:41.818Z,7.13
2022-10-13T03:32:09.644Z,7.20
2022-10-13T03:34:37.210Z,7.26
2022-10-13T03:37:04.766Z,7.31
2022-10-13T03:39:32.262Z,7.35
2022-10-13T03:41:59.761Z,7.36
2022-10-13T03:44:27.245Z,7.39
2022-10-13T03:46:54.777Z,7.42
2022-10-13T03:49:22.301Z,7.48
2022-10-13T03:51:49.810Z,7.56
2022-10-13T03:54:17.416Z,7.62
2022-10-13T03:56:44.956Z,7.67
2022-10-13T03:59:13.481Z,7.71
2022-10-13T04:01:41.024Z,7.75
2022-10-13T04:04:11.281Z,7.79
2022-10-13T04:06:39.263Z,7.81
2022-10-13T04:09:06.803Z,7.83
2022-10-13T04:11:34.351Z,7.84
2022-10-13T04:14:01.856Z,7.87
2022-10-13T04:16:31.300Z,7.92
2022-10-13T04:19:04.290Z,7.96
2022-10-13T04:21:35.986Z,7.98
2022-10-13T04:24:04.660Z,8.00
2022-10-13T04:26:35.446Z,8.02
2022-10-13T04:29:05.257Z,8.03
2022-10-13T04:31:34.030Z,8.05
2022-10-13T04:34:01.672Z,8.04
2022-10-13T04:36:29.197Z,8.05
2022-10-13T04:38:56.754Z,8.05
2022-10-13T04:41:24.327Z,8.05
2022-10-13T04:43:53.103Z,8.05
2022-10-13T04:46:23.902Z,8.05
2022-10-13T04:48:52.419Z,8.04
2022-10-13T04:51:22.662Z,8.03
2022-10-13T04:53:58.629Z,8.04
2022-10-13T04:56:26.856Z,8.08
2022-10-13T04:58:54.580Z,8.13
2022-10-13T05:01:24.659Z,8.17
2022-10-13T05:03:54.305Z,8.21
2022-10-13T05:06:24.666Z,8.24
2022-10-13T05:08:52.362Z,8.26
2022-10-13T05:11:20.546Z,8.28
2022-10-13T05:13:49.053Z,8.29
2022-10-13T05:16:18.514Z,8.29
2022-10-13T05:18:46.009Z,8.29
2022-10-13T05:21:16.473Z,8.30
2022-10-13T05:23:45.503Z,8.33
2022-10-13T05:26:15.481Z,8.35
2022-10-13T05:28:44.205Z,8.36
2022-10-13T05:31:20.579Z,8.36
2022-10-13T05:33:49.192Z,8.36
2022-10-13T05:36:19.550Z,8.33
2022-10-13T05:38:56.957Z,8.35
2022-10-13T05:41:26.542Z,8.38
2022-10-13T05:43:57.710Z,8.40
2022-10-13T05:46:25.878Z,8.41
2022-10-13T05:48:54.256Z,8.43
2022-10-13T05:51:27.548Z,8.45
2022-10-13T05:54:02.802Z,8.46
2022-10-13T05:56:37.470Z,8.47
2022-10-13T05:59:08.108Z,8.49
2022-10-13T06:01:39.779Z,8.52
2022-10-13T06:04:12.809Z,8.55
2022-10-13T06:06:41.500Z,8.60
2022-10-13T06:09:10.548Z,8.64
2022-10-13T06:11:38.150Z,8.71
2022-10-13T06:14:05.972Z,8.75
2022-10-13T06:16:36.401Z,8.79
2022-10-13T06:19:06.014Z,8.84
2022-10-13T06:21:39.577Z,8.90
2022-10-13T06:24:07.409Z,8.97
2022-10-13T06:26:34.874Z,9.05
2022-10-13T06:29:02.497Z,9.12
2022-10-13T06:31:31.541Z,9.21
2022-10-13T06:34:01.969Z,9.27
2022-10-13T06:36:29.531Z,9.33
2022-10-13T06:38:57.631Z,9.37
2022-10-13T06:41:25.396Z,9.40
2022-10-13T06:43:53.001Z,9.42
2022-10-13T06:46:20.965Z,9.43
2022-10-13T06:48:52.242Z,9.44
2022-10-13T06:51:20.095Z,9.48
2022-10-13T06:53:47.866Z,9.50
2022-10-13T06:56:15.456Z,9.49
2022-10-13T06:58:43.163Z,9.46
2022-10-13T07:01:13.343Z,9.43
2022-10-13T07:03:41.314Z,9.41
2022-10-13T07:06:09.050Z,9.41
2022-10-13T07:08:36.708Z,9.42
2022-10-13T07:11:15.267Z,9.43
2022-10-13T07:13:47.467Z,9.45
2022-10-13T07:16:15.684Z,9.46
2022-10-13T07:18:43.637Z,9.48
2022-10-13T07:21:14.590Z,9.50
2022-10-13T07:23:44.163Z,9.54
2022-10-13T07:26:14.882Z,9.58
2022-10-13T07:28:44.720Z,9.64
2022-10-13T07:31:16.829Z,9.71
2022-10-13T07:33:47.978Z,9.77
2022-10-13T07:36:18.543Z,9.83
2022-10-13T07:38:47.159Z,9.89
2022-10-13T07:41:18.234Z,9.94
2022-10-13T07:43:46.240Z,9.98
2022-10-13T07:46:14.069Z,10.03
2022-10-13T07:48:41.740Z,10.10
2022-10-13T07:51:12.518Z,10.23
2022-10-13T07:53:41.243Z,10.49
2022-10-13T07:56:16.368Z,10.75
2022-10-13T07:58:47.759Z,10.84
2022-10-13T08:01:16.720Z,10.92
2022-10-13T08:03:48.933Z,10.97
2022-10-13T08:06:18.402Z,11.01
2022-10-13T08:08:47.129Z,11.04
2022-10-13T08:11:17.014Z,11.08
2022-10-13T08:13:52.063Z,11.15
2022-10-13T08:16:19.561Z,11.25
2022-10-13T08:18:48.331Z,11.40
2022-10-13T08:24:11.341Z,11.83
2022-10-13T08:26:39.979Z,12.08
2022-10-13T08:29:24.143Z,12.32
2022-10-13T08:31:57.294Z,12.61
2022-10-13T08:34:25.674Z,12.88
2022-10-13T08:36:56.241Z,13.11
2022-10-13T08:39:24.945Z,13.32
2022-10-13T08:41:55.951Z,13.52
2022-10-13T08:47:40.743Z,13.97
2022-10-13T08:50:20.898Z,14.14
2022-10-13T08:52:59.104Z,14.28
2022-10-13T08:55:38.128Z,14.41
2022-10-13T08:58:29.528Z,14.55
2022-10-13T09:01:10.969Z,14.69
2022-10-13T09:03:48.230Z,14.79
2022-10-13T09:06:39.610Z,14.92
2022-10-13T09:09:09.643Z,15.03
2022-10-13T09:11:40.863Z,15.16
2022-10-13T09:14:21.855Z,15.26
2022-10-13T09:16:50.552Z,15.40
2022-10-13T09:19:36.474Z,15.51
2022-10-13T09:22:23.839Z,15.64
2022-10-13T09:25:07.319Z,15.82
2022-10-13T09:27:46.168Z,16.05
2022-10-13T09:30:47.096Z,16.31
2022-10-13T09:33:21.267Z,16.50
2022-10-13T09:36:07.569Z,16.63
2022-10-13T09:38:36.971Z,16.78
2022-10-13T09:41:07.112Z,16.90
2022-10-13T09:43:37.627Z,16.92
2022-10-13T09:46:20.556Z,16.96
2022-10-13T09:48:52.952Z,17.01
2022-10-13T09:51:47.380Z,17.09
2022-10-13T09:54:39.935Z,17.12
2022-10-13T09:57:39.304Z,17.28
2022-10-13T10:00:22.179Z,17.46
2022-10-13T10:03:11.297Z,17.64
2022-10-13T10:05:56.013Z,17.81
2022-10-13T10:09:02.865Z,18.00
2022-10-13T10:11:42.498Z,18.13
2022-10-13T10:14:15.321Z,18.17
2022-10-13T10:16:46.594Z,18.27
2022-10-13T10:19:46.151Z,18.33
2022-10-13T10:22:30.865Z,18.49
2022-10-13T10:25:14.361Z,18.56
2022-10-13T10:27:48.104Z,18.63
2022-10-13T10:30:20.584Z,18.67
2022-10-13T10:32:51.050Z,18.57
2022-10-13T10:35:49.388Z,18.53
2022-10-13T10:38:32.865Z,18.60
2022-10-13T10:41:16.370Z,18.70
2022-10-13T10:43:56.023Z,18.73
2022-10-13T10:46:29.020Z,18.72
2022-10-13T10:49:04.442Z,18.83
2022-10-13T10:51:36.716Z,18.92
2022-10-13T10:54:27.562Z,19.11
2022-10-13T10:57:02.095Z,19.32
2022-10-13T11:00:01.688Z,19.55
2022-10-13T11:03:01.408Z,19.75
2022-10-13T11:06:01.045Z,19.99
2022-10-13T11:08:49.332Z,20.08
2022-10-13T11:11:24.870Z,20.35
2022-10-13T11:13:59.601Z,20.49
2022-10-13T11:16:32.096Z,20.56
2022-10-13T11:19:06.582Z,20.49
2022-10-13T11:22:06.250Z,20.49
2022-10-13T11:24:33.795Z,20.37
2022-10-13T11:27:18.668Z,20.11
2022-10-13T11:29:51.576Z,19.89
2022-10-13T11:32:44.834Z,19.80
2022-10-13T11:35:20.828Z,19.93
2022-10-13T11:38:07.325Z,20.04
2022-10-13T11:40:51.633Z,20.38
2022-10-13T11:43:55.566Z,20.65
2022-10-13T11:46:26.043Z,21.05
2022-10-13T11:49:18.537Z,21.25
2022-10-13T11:51:51.972Z,21.08
2022-10-13T11:54:34.212Z,20.87
2022-10-13T11:57:01.843Z,20.61
2022-10-13T11:59:32.420Z,20.32
2022-10-13T12:02:11.850Z,20.12
2022-10-13T12:04:45.681Z,19.84
2022-10-13T12:07:15.970Z,19.47
2022-10-13T12:09:59.787Z,19.06
2022-10-13T12:12:27.408Z,18.67
2022-10-13T12:14:59.861Z,18.42
2022-10-13T12:17:35.800Z,18.31
2022-10-13T12:20:20.530Z,18.25
2022-10-13T12:22:49.742Z,18.18
2022-10-13T12:25:19.475Z,18.11
2022-10-13T12:27:53.823Z,18.08
2022-10-13T12:30:23.030Z,18.13
2022-10-13T12:32:54.205Z,18.18
2022-10-13T12:35:37.743Z,18.18
2022-10-13T12:38:15.633Z,18.15
2022-10-13T12:40:43.222Z,18.07
2022-10-13T12:43:18.353Z,18.08
2022-10-13T12:45:46.286Z,18.18
2022-10-13T12:48:34.609Z,18.33
2022-10-13T12:51:15.722Z,18.69
2022-10-13T12:53:43.703Z,19.16
2022-10-13T12:56:42.363Z,19.80
2022-10-13T12:59:18.140Z,20.44
2022-10-13T13:01:52.215Z,20.88
2022-10-13T13:04:22.702Z,21.36
2022-10-13T13:06:58.366Z,21.86
2022-10-13T13:09:30.752Z,22.47
2022-10-13T13:12:22.742Z,22.90
2022-10-13T13:14:54.833Z,23.35
2022-10-13T13:17:56.726Z,23.67
2022-10-13T13:20:20.392Z,24.13
2022-10-13T13:22:48.032Z,24.41
2022-10-13T13:25:15.579Z,24.70
2022-10-13T13:27:43.093Z,24.97
2022-10-13T13:30:17.098Z,25.25
2022-10-13T13:32:45.107Z,25.57
2022-10-13T13:35:14.123Z,25.84
2022-10-13T13:37:48.801Z,26.02
2022-10-13T13:40:24.257Z,26.05
2022-10-13T13:42:52.207Z,26.22
2022-10-13T13:45:22.967Z,26.34
2022-10-13T13:47:50.901Z,26.55
2022-10-13T13:50:26.979Z,26.73
2022-10-13T13:52:54.456Z,26.80
2022-10-13T13:55:23.232Z,26.66
2022-10-13T13:57:51.083Z,26.48
2022-10-13T14:00:19.429Z,26.34
2022-10-13T14:02:47.601Z,26.36
2022-10-13T14:05:15.578Z,26.46
2022-10-13T14:07:43.237Z,26.47
2022-10-13T14:10:11.283Z,26.32
2022-10-13T14:12:38.870Z,26.37
2022-10-13T14:15:07.897Z,26.49
2022-10-13T14:17:35.495Z,26.54
2022-10-13T14:20:03.332Z,26.64
2022-10-13T14:22:30.865Z,26.76
2022-10-13T14:24:58.417Z,26.97
2022-10-13T14:27:25.963Z,27.06
2022-10-13T14:29:53.523Z,27.16
2022-10-13T14:32:21.418Z,27.39
2022-10-13T14:34:49.166Z,27.70
2022-10-13T14:37:20.907Z,27.93
2022-10-13T14:39:50.729Z,28.01
2022-10-13T14:42:18.347Z,27.82
2022-10-13T14:44:45.887Z,27.74
2022-10-13T14:47:13.533Z,27.79
2022-10-13T14:49:41.045Z,27.78
2022-10-13T14:52:09.046Z,27.78
2022-10-13T14:54:39.057Z,27.76
2022-10-13T14:57:15.401Z,27.63
2022-10-13T14:59:43.926Z,27.19
2022-10-13T15:02:12.965Z,26.24
2022-10-13T15:04:40.693Z,25.09
2022-10-13T15:07:08.597Z,24.13
2022-10-13T15:09:52.971Z,23.18
2022-10-13T15:12:24.082Z,22.35
2022-10-13T15:14:51.732Z,21.59
2022-10-13T15:17:19.237Z,20.97
2022-10-13T15:19:46.681Z,20.37
2022-10-13T15:22:14.252Z,19.80
2022-10-13T15:24:42.298Z,19.29
2022-10-13T15:27:09.814Z,18.84
2022-10-13T15:29:37.294Z,18.41
2022-10-13T15:32:10.937Z,18.00
2022-10-13T15:34:39.993Z,17.56
2022-10-13T15:37:07.854Z,17.14
2022-10-13T15:39:35.553Z,16.78
2022-10-13T15:42:04.343Z,16.41
2022-10-13T15:44:51.103Z,16.05
2022-10-13T15:47:19.531Z,15.71
2022-10-13T15:49:46.992Z,15.44
2022-10-13T15:52:14.518Z,15.16
2022-10-13T15:54:42.074Z,14.91
2022-10-13T15:57:09.554Z,14.65
2022-10-13T15:59:37.443Z,14.42
2022-10-13T16:02:04.888Z,14.20
2022-10-13T16:04:37.145Z,13.98
2022-10-13T16:07:05.222Z,13.77
2022-10-13T16:09:32.770Z,13.59
2022-10-13T16:12:00.253Z,13.38
2022-10-13T16:14:27.720Z,13.19
2022-10-13T16:16:55.278Z,12.98
2022-10-13T16:19:22.890Z,12.80
2022-10-13T16:21:50.382Z,12.64
2022-10-13T16:24:17.860Z,12.49
2022-10-13T16:26:45.372Z,12.35
2022-10-13T16:29:12.864Z,12.23
2022-10-13T16:31:40.367Z,12.12
2022-10-13T16:34:07.831Z,12.00
2022-10-13T16:36:35.291Z,11.88
2022-10-13T16:39:03.138Z,11.75
2022-10-13T16:41:30.734Z,11.62
2022-10-13T16:43:58.367Z,11.51
2022-10-13T16:46:25.968Z,11.39
2022-10-13T16:48:53.435Z,11.28
2022-10-13T16:51:23.289Z,11.20
2022-10-13T16:54:02.929Z,11.11
2022-10-13T16:56:32.821Z,11.03
2022-10-13T16:59:03.097Z,10.97
2022-10-13T17:01:31.914Z,10.90
2022-10-13T17:04:00.494Z,10.84
2022-10-13T17:06:29.551Z,10.77
2022-10-13T17:08:59.108Z,10.70
2022-10-13T17:11:29.995Z,10.64
2022-10-13T17:13:58.634Z,10.58
2022-10-13T17:16:27.418Z,10.52
2022-10-13T17:18:55.505Z,10.46
2022-10-13T17:21:23.181Z,10.41
2022-10-13T17:23:50.757Z,10.35
2022-10-13T17:26:19.152Z,10.29
2022-10-13T17:28:46.723Z,10.24
2022-10-13T17:31:20.006Z,10.18
2022-10-13T17:33:48.625Z,10.12
2022-10-13T17:36:22.567Z,10.06
2022-10-13T17:38:51.406Z,10.00
2022-10-13T17:41:20.023Z,9.94
2022-10-13T17:43:48.977Z,9.88
2022-10-13T17:49:09.495Z,9.76
2022-10-13T17:51:37.682Z,9.71
2022-10-13T17:54:05.853Z,9.67
2022-10-13T17:56:33.713Z,9.65
2022-10-13T17:59:02.310Z,9.62
2022-10-13T18:01:32.666Z,9.59
2022-10-13T18:04:09.813Z,9.55
2022-10-13T18:06:40.675Z,9.49
2022-10-13T18:09:11.854Z,9.45
2022-10-13T18:11:41.763Z,9.44
2022-10-13T18:14:11.058Z,9.44
2022-10-13T18:16:38.620Z,9.46
2022-10-13T18:19:06.136Z,9.47
2022-10-13T18:21:33.796Z,9.47
2022-10-13T18:24:02.425Z,9.46
2022-10-13T18:26:32.269Z,9.45
2022-10-13T18:28:59.881Z,9.44
2022-10-13T18:31:30.647Z,9.41
2022-10-13T18:34:04.389Z,9.36
2022-10-13T18:36:37.334Z,9.30
2022-10-13T18:39:07.823Z,9.26
2022-10-13T18:41:36.657Z,9.23
2022-10-13T18:44:04.896Z,9.19
2022-10-13T18:46:34.232Z,9.14
2022-10-13T18:49:02.680Z,9.09
2022-10-13T18:51:35.626Z,9.07
2022-10-13T18:54:05.746Z,9.05
2022-10-13T18:56:34.139Z,9.05
2022-10-13T18:59:02.363Z,9.08
2022-10-13T19:01:34.420Z,9.11
2022-10-13T19:04:02.664Z,9.15
2022-10-13T19:06:32.267Z,9.16
2022-10-13T19:09:02.420Z,9.16
2022-10-13T19:11:32.327Z,9.15
2022-10-13T19:14:00.782Z,9.14
2022-10-13T19:16:30.918Z,9.12
2022-10-13T19:18:58.639Z,9.10
2022-10-13T19:21:26.347Z,9.07
2022-10-13T19:23:55.041Z,9.04
2022-10-13T19:26:26.501Z,9.03
2022-10-13T19:28:57.154Z,9.06
2022-10-13T19:31:28.057Z,9.08
2022-10-13T19:33:56.672Z,9.09
2022-10-13T19:36:27.936Z,9.11
2022-10-13T19:38:56.264Z,9.11
2022-10-13T19:41:25.325Z,9.12
2022-10-13T19:43:53.228Z,9.12
2022-10-13T19:46:20.734Z,9.12
2022-10-13T19:48:48.325Z,9.13
2022-10-13T19:51:16.522Z,9.15
2022-10-13T19:53:44.690Z,9.15
2022-10-13T19:56:24.740Z,9.18
2022-10-13T19:58:53.305Z,9.20
2022-10-13T20:01:21.437Z,9.21
2022-10-13T20:03:49.873Z,9.21
2022-10-13T20:06:18.743Z,9.22
2022-10-13T20:08:46.687Z,9.21
2022-10-13T20:11:23.768Z,9.22
2022-10-13T20:13:53.111Z,9.23
2022-10-13T20:16:24.705Z,9.25
2022-10-13T20:18:57.547Z,9.26
2022-10-13T20:21:27.717Z,9.28
2022-10-13T20:23:55.917Z,9.29
2022-10-13T20:26:24.473Z,9.30
2022-10-13T20:28:54.298Z,9.31
2022-10-13T20:31:22.857Z,9.31
2022-10-13T20:33:56.017Z,9.31
2022-10-13T20:36:26.180Z,9.30
2022-10-13T20:38:54.561Z,9.30
2022-10-13T20:41:25.373Z,9.32
2022-10-13T20:43:55.098Z,9.35
2022-10-13T20:46:26.661Z,9.38
2022-10-13T20:49:11.293Z,9.39
2022-10-13T20:51:42.490Z,9.40
2022-10-13T20:54:11.883Z,9.40
2022-10-13T20:56:40.049Z,9.39
2022-10-13T20:59:10.704Z,9.38
2022-10-13T21:01:38.687Z,9.35
2022-10-13T21:04:07.475Z,9.33
2022-10-13T21:06:35.982Z,9.34
2022-10-13T21:09:05.535Z,9.34
2022-10-13T21:11:33.767Z,9.32
2022-10-13T21:14:06.196Z,9.32
2022-10-13T21:16:34.830Z,9.31
2022-10-13T21:19:03.094Z,9.29
2022-10-13T21:21:33.482Z,9.25
2022-10-13T21:24:04.483Z,9.21
2022-10-13T21:26:33.363Z,9.16
2022-10-13T21:29:02.144Z,9.11
2022-10-13T21:31:30.482Z,9.08
2022-10-13T21:33:58.250Z,9.06
2022-10-13T21:36:28.773Z,9.04
2022-10-13T21:39:01.822Z,9.02
2022-10-13T21:41:30.424Z,8.99
2022-10-13T21:43:58.198Z,8.96
2022-10-13T21:46:28.659Z,8.95
2022-10-13T21:49:01.749Z,8.93
2022-10-13T21:51:38.050Z,8.92
2022-10-13T21:54:11.765Z,8.91
2022-10-13T21:56:40.820Z,8.89
2022-10-13T21:59:11.167Z,8.86
2022-10-13T22:01:39.670Z,8.83
2022-10-13T22:04:08.009Z,8.80
2022-10-13T22:06:36.025Z,8.77
2022-10-13T22:09:05.243Z,8.74
2022-10-13T22:11:36.107Z,8.71
2022-10-13T22:14:04.270Z,8.69
2022-10-13T22:16:40.838Z,8.66
2022-10-13T22:19:08.902Z,8.64
2022-10-13T22:21:45.999Z,8.64
2022-10-13T22:24:22.574Z,8.64
2022-10-13T22:26:51.161Z,8.64
2022-10-13T22:29:21.200Z,8.63
2022-10-13T22:31:50.660Z,8.59
2022-10-13T22:34:18.272Z,8.56
2022-10-13T22:36:45.884Z,8.52
2022-10-13T22:39:14.835Z,8.49
2022-10-13T22:41:42.400Z,8.47
2022-10-13T22:44:10.398Z,8.46
2022-10-13T22:46:39.086Z,8.47
2022-10-13T22:49:07.274Z,8.47
2022-10-13T22:51:36.466Z,8.48
2022-10-13T22:54:04.953Z,8.50
2022-10-13T22:56:33.920Z,8.50
2022-10-13T22:59:05.409Z,8.49
2022-10-13T23:01:33.810Z,8.49
2022-10-13T23:04:01.337Z,8.48
2022-10-13T23:06:31.578Z,8.46
2022-10-13T23:09:04.850Z,8.47
2022-10-13T23:11:33.591Z,8.47
2022-10-13T23:14:02.699Z,8.47
2022-10-13T23:16:31.390Z,8.47
2022-10-13T23:18:59.025Z,8.47
2022-10-13T23:21:28.667Z,8.44
2022-10-13T23:24:02.469Z,8.39
2022-10-13T23:26:31.353Z,8.37
2022-10-13T23:28:59.880Z,8.37
2022-10-13T23:31:28.876Z,8.38
2022-10-13T23:33:57.065Z,8.41
2022-10-13T23:36:27.544Z,8.41
2022-10-13T23:39:00.212Z,8.41
2022-10-13T23:41:29.685Z,8.41
2022-10-13T23:43:57.541Z,8.41
2022-10-13T23:46:25.728Z,8.40
2022-10-13T23:48:53.291Z,8.38
2022-10-13T23:51:23.644Z,8.36
2022-10-13T23:53:51.557Z,8.33
2022-10-13T23:56:19.364Z,8.33
2022-10-13T23:58:47.337Z,8.34
